Time;durP1;ratioP1;P1;durP2;ratioP2;P2;SDS_P1;SDS_P2;PMS_P1;PMS_P2;Temp;Humidity;BMP_temperature;BMP_pressure;BME280_temperature;BME280_humidity;BME280_pressure;Samples;Min_cycle;Max_cycle;Signal;HPM_P1;HPM_P2
2022/11/17 00:01:50;;;;;;;8.77;3.00;;;11.20;99.00;;;;;;4998002;28;20050;-81
2022/11/17 00:04:16;;;;;;;8.57;3.27;;;11.20;99.20;;;;;;4994507;28;20422;-81
2022/11/17 00:06:41;;;;;;;9.13;2.33;;;11.20;99.40;;;;;;4994577;28;20034;-81
2022/11/17 00:09:16;;;;;;;5.88;2.28;;;11.20;99.40;;;;;;4994828;28;20034;-81
2022/11/17 00:14:32;;;;;;;7.97;2.37;;;11.20;99.80;;;;;;4994975;28;20390;-81
2022/11/17 00:17:06;;;;;;;12.00;2.67;;;11.20;99.90;;;;;;4994472;28;20031;-81
2022/11/17 00:22:16;;;;;;;7.77;2.17;;;11.20;99.90;;;;;;4994492;28;20182;-81
2022/11/17 00:24:42;;;;;;;12.33;2.63;;;11.20;99.90;;;;;;4977835;28;20129;-81
2022/11/17 00:27:07;;;;;;;8.83;3.13;;;11.20;99.90;;;;;;4982341;28;20026;-81
2022/11/17 00:29:33;;;;;;;8.50;2.50;;;11.20;99.90;;;;;;4996703;28;20045;-80
2022/11/17 00:34:43;;;;;;;10.43;2.30;;;11.10;99.90;;;;;;5013817;28;20156;-81
2022/11/17 00:37:10;;;;;;;8.60;2.30;;;11.20;99.90;;;;;;5014373;28;20152;-81
2022/11/17 00:39:36;;;;;;;9.23;2.37;;;11.20;99.90;;;;;;4997251;28;20042;-81
2022/11/17 00:42:02;;;;;;;9.55;2.25;;;11.20;99.90;;;;;;5012903;28;20402;-80
2022/11/17 00:44:28;;;;;;;10.17;2.20;;;11.20;99.90;;;;;;5012930;28;20489;-80
2022/11/17 00:46:54;;;;;;;12.10;2.87;;;11.10;99.90;;;;;;5013132;28;20049;-80
2022/11/17 00:49:23;;;;;;;8.33;2.17;;;11.20;99.90;;;;;;5013022;28;20474;-80
2022/11/17 00:51:52;;;;;;;8.07;2.00;;;11.20;99.90;;;;;;4997097;28;20030;-80
2022/11/17 00:54:18;;;;;;;9.23;2.07;;;11.20;99.90;;;;;;4996892;28;20037;-80
2022/11/17 00:56:44;;;;;;;7.60;1.90;;;11.20;99.90;;;;;;5012952;28;20030;-80
2022/11/17 00:59:10;;;;;;;7.80;1.73;;;11.20;99.90;;;;;;5013011;28;20022;-80
2022/11/17 01:01:36;;;;;;;7.57;1.50;;;11.20;99.90;;;;;;5012936;28;20026;-80
2022/11/17 01:04:03;;;;;;;7.80;2.17;;;11.10;99.90;;;;;;4996389;28;20100;-81
2022/11/17 01:06:33;;;;;;;7.60;1.67;;;11.20;99.90;;;;;;5014468;28;20347;-81
2022/11/17 01:09:00;;;;;;;8.73;1.63;;;11.20;99.90;;;;;;5012712;28;20077;-80
2022/11/17 01:11:26;;;;;;;7.23;1.40;;;11.20;99.90;;;;;;5012722;28;20042;-80
2022/11/17 01:13:54;;;;;;;6.17;1.60;;;11.10;99.90;;;;;;5012509;28;20029;-80
2022/11/17 01:16:20;;;;;;;5.57;1.67;;;11.10;99.90;;;;;;5012665;28;20026;-81
2022/11/17 01:18:47;;;;;;;7.67;1.77;;;11.10;99.90;;;;;;4996184;28;20037;-80
2022/11/17 01:21:18;;;;;;;5.45;1.52;;;11.10;99.90;;;;;;5012469;28;20456;-81
2022/11/17 01:23:46;;;;;;;7.03;1.63;;;11.10;99.90;;;;;;5013949;28;20099;-81
2022/11/17 01:26:17;;;;;;;6.77;1.73;;;11.10;99.90;;;;;;4996215;28;20053;-81
2022/11/17 01:28:43;;;;;;;11.83;1.83;;;11.10;99.90;;;;;;5004562;28;20033;-81
2022/11/17 01:31:14;;;;;;;8.10;1.70;;;11.00;99.90;;;;;;5010921;28;20041;-81
2022/11/17 01:33:40;;;;;;;8.90;1.50;;;11.10;99.90;;;;;;4994500;28;20478;-80
2022/11/17 01:36:10;;;;;;;5.97;1.33;;;11.10;99.90;;;;;;4994701;28;20117;-81
2022/11/17 01:38:36;;;;;;;6.77;1.30;;;11.10;99.90;;;;;;5012331;28;20382;-81
2022/11/17 01:41:04;;;;;;;7.20;2.00;;;11.00;99.90;;;;;;4996085;28;20030;-81
2022/11/17 01:43:36;;;;;;;8.60;1.57;;;11.10;99.90;;;;;;5010925;28;20026;-81
2022/11/17 01:46:02;;;;;;;8.90;2.15;;;11.10;99.90;;;;;;5013379;28;20061;-81
2022/11/17 01:48:27;;;;;;;6.23;1.83;;;11.10;99.90;;;;;;5012061;28;20458;-81
2022/11/17 01:50:53;;;;;;;3.73;1.60;;;11.10;99.90;;;;;;5012145;28;20038;-82
2022/11/17 01:53:21;;;;;;;7.17;1.87;;;11.10;99.90;;;;;;4995861;28;20096;-81
2022/11/17 01:56:01;;;;;;;6.47;2.08;;;11.10;99.90;;;;;;4995996;28;20141;-82
2022/11/17 01:58:33;;;;;;;7.77;2.40;;;11.10;99.90;;;;;;5012188;28;20121;-82
2022/11/17 02:00:59;;;;;;;8.97;1.80;;;11.10;99.90;;;;;;5012277;28;20034;-82
2022/11/17 02:03:26;;;;;;;5.33;1.80;;;11.10;99.90;;;;;;5011872;28;20108;-81
2022/11/17 02:05:58;;;;;;;5.90;1.93;;;11.10;99.90;;;;;;5012418;28;20037;-82
2022/11/17 02:08:27;;;;;;;7.07;1.87;;;11.10;99.90;;;;;;5011869;28;20458;-81
2022/11/17 02:10:53;;;;;;;9.23;1.50;;;11.10;99.90;;;;;;5011761;28;20030;-81
2022/11/17 02:13:20;;;;;;;4.70;1.23;;;11.10;99.90;;;;;;5011993;28;20033;-81
2022/11/17 02:15:46;;;;;;;4.80;1.00;;;11.10;99.90;;;;;;5012246;28;20030;-82
2022/11/17 02:18:12;;;;;;;5.57;1.10;;;11.10;99.90;;;;;;5011633;28;20026;-82
2022/11/17 02:20:53;;;;;;;4.70;0.87;;;11.20;99.90;;;;;;5011846;28;20034;-81
2022/11/17 02:23:24;;;;;;;5.37;1.10;;;11.10;99.90;;;;;;5011639;28;20034;-81
2022/11/17 02:26:16;;;;;;;3.37;1.00;;;11.20;99.90;;;;;;5011925;28;20026;-82
2022/11/17 02:29:00;;;;;;;5.57;0.90;;;11.20;99.90;;;;;;5011067;28;20088;-81
2022/11/17 02:31:53;;;;;;;2.40;0.80;;;11.20;99.90;;;;;;5011543;28;20435;-81
2022/11/17 02:34:21;;;;;;;4.37;1.30;;;11.20;99.90;;;;;;5011910;28;20014;-82
2022/11/17 02:36:55;;;;;;;4.50;0.70;;;11.20;99.90;;;;;;5012636;28;20026;-82
2022/11/17 02:39:34;;;;;;;6.77;0.90;;;11.20;99.90;;;;;;5016619;28;20522;-81
2022/11/17 02:44:02;;;;;;;6.10;1.00;;;11.30;99.90;;;;;;5015295;28;20018;-81
2022/11/17 02:45:17;;;;;;;3.27;0.80;;;11.30;99.90;;;;;;5016471;28;20034;-82
2022/11/17 02:47:46;;;;;;;2.97;0.60;;;11.30;99.90;;;;;;5015344;28;20029;-81
2022/11/17 02:50:13;;;;;;;5.63;0.80;;;11.30;99.90;;;;;;5015158;28;20084;-81
2022/11/17 02:52:39;;;;;;;3.42;0.63;;;11.30;99.90;;;;;;5016483;28;20041;-81
2022/11/17 02:55:07;;;;;;;3.38;0.60;;;11.30;99.90;;;;;;5015504;28;20545;-81
2022/11/17 02:57:38;;;;;;;4.20;0.70;;;11.30;99.90;;;;;;5016723;28;20462;-81
2022/11/17 03:00:12;;;;;;;3.97;0.55;;;11.30;99.90;;;;;;5015132;28;20026;-81
2022/11/17 03:03:06;;;;;;;4.80;1.45;;;11.30;99.90;;;;;;5014742;28;20060;-81
2022/11/17 03:05:47;;;;;;;3.75;0.73;;;11.40;99.90;;;;;;5015075;28;20034;-81
2022/11/17 03:08:31;;;;;;;3.60;0.70;;;11.40;99.90;;;;;;5016402;28;20605;-81
2022/11/17 03:11:01;;;;;;;2.85;0.80;;;11.40;99.90;;;;;;5016206;28;20394;-81
2022/11/17 03:13:51;;;;;;;2.00;0.63;;;11.40;99.90;;;;;;5015752;28;20028;-81
2022/11/17 03:16:26;;;;;;;4.97;0.85;;;11.40;99.90;;;;;;5014657;28;20030;-81
2022/11/17 03:19:15;;;;;;;4.30;0.77;;;11.40;99.90;;;;;;5015998;28;20029;-81
2022/11/17 03:21:49;;;;;;;3.08;0.63;;;11.40;99.90;;;;;;5015944;28;20022;-81
2022/11/17 03:24:30;;;;;;;3.90;0.90;;;11.50;99.90;;;;;;5014433;28;20112;-81
2022/11/17 03:27:01;;;;;;;3.60;0.73;;;11.50;99.90;;;;;;5016334;28;20041;-81
2022/11/17 03:29:30;;;;;;;3.63;0.77;;;11.50;99.90;;;;;;5014464;28;20124;-80
2022/11/17 03:31:59;;;;;;;2.92;0.70;;;11.50;99.90;;;;;;5014436;28;20033;-81
2022/11/17 03:34:28;;;;;;;3.40;0.70;;;11.50;99.90;;;;;;5014688;28;20070;-81
2022/11/17 03:36:59;;;;;;;5.00;0.90;;;11.60;99.90;;;;;;5014485;28;20071;-81
2022/11/17 03:39:31;;;;;;;5.32;0.80;;;11.60;99.90;;;;;;5014864;28;20104;-82
2022/11/17 03:42:21;;;;;;;3.28;0.73;;;11.60;99.90;;;;;;5014321;28;20053;-81
2022/11/17 03:44:51;;;;;;;2.83;0.70;;;11.60;99.90;;;;;;5013184;28;20034;-82
2022/11/17 03:47:19;;;;;;;2.15;0.57;;;11.60;99.90;;;;;;5015837;28;20131;-81
2022/11/17 03:50:17;;;;;;;2.47;0.88;;;11.60;99.90;;;;;;4996600;28;20038;-82
2022/11/17 03:52:44;;;;;;;2.88;0.85;;;11.60;99.90;;;;;;4981817;28;20466;-81
2022/11/17 03:55:10;;;;;;;4.32;0.90;;;11.60;99.90;;;;;;4997698;28;20474;-82
2022/11/17 03:58:06;;;;;;;4.40;0.95;;;11.60;99.90;;;;;;5013963;28;20033;-82
2022/11/17 04:00:35;;;;;;;3.90;1.00;;;11.50;99.90;;;;;;5015107;28;20033;-82
2022/11/17 04:03:00;;;;;;;2.28;0.70;;;11.60;99.90;;;;;;5015269;28;20032;-82
2022/11/17 04:05:26;;;;;;;2.67;0.75;;;11.60;99.90;;;;;;5013874;28;20417;-82
2022/11/17 04:07:52;;;;;;;1.73;0.60;;;11.50;99.90;;;;;;5014826;28;20481;-82
2022/11/17 04:10:20;;;;;;;4.05;0.77;;;11.50;99.90;;;;;;5013670;28;20042;-80
2022/11/17 04:18:15;;;;;;;6.90;0.75;;;11.50;99.90;;;;;;4995316;28;20037;-81
2022/11/17 04:20:42;;;;;;;3.53;0.60;;;11.50;99.90;;;;;;4994454;28;20038;-80
2022/11/17 04:23:13;;;;;;;3.43;0.87;;;11.50;99.90;;;;;;4977968;28;20479;-80
2022/11/17 04:28:36;;;;;;;2.90;0.75;;;11.50;99.90;;;;;;4994002;28;20037;-80
2022/11/17 04:31:08;;;;;;;2.40;0.70;;;11.50;99.90;;;;;;4978738;28;20085;-80
2022/11/17 04:33:34;;;;;;;1.40;0.70;;;11.50;99.90;;;;;;4993742;28;20027;-80
2022/11/17 04:36:01;;;;;;;2.78;0.63;;;11.40;99.90;;;;;;4993954;28;20041;-80
2022/11/17 04:38:26;;;;;;;2.37;0.90;;;11.50;99.90;;;;;;4993821;28;20100;-80
2022/11/17 04:43:40;;;;;;;3.77;0.80;;;11.50;99.90;;;;;;4994329;28;20513;-80
2022/11/17 04:46:06;;;;;;;2.58;0.98;;;11.50;99.90;;;;;;4993843;28;20026;-81
2022/11/17 04:48:31;;;;;;;2.15;0.80;;;11.50;99.90;;;;;;4993569;28;20038;-81
2022/11/17 04:50:57;;;;;;;2.00;0.80;;;11.50;99.90;;;;;;4993453;28;20046;-81
2022/11/17 04:53:23;;;;;;;2.73;0.90;;;11.40;99.90;;;;;;4977278;28;20068;-80
2022/11/17 04:55:49;;;;;;;3.97;1.17;;;11.50;99.90;;;;;;4977205;28;20034;-81
2022/11/17 04:58:16;;;;;;;3.43;0.97;;;11.50;99.90;;;;;;4977352;28;20026;-80
2022/11/17 05:00:41;;;;;;;3.47;1.00;;;11.40;99.90;;;;;;4977407;28;20446;-79
2022/11/17 05:03:07;;;;;;;2.43;1.00;;;11.40;99.90;;;;;;4985797;28;20046;-79
2022/11/17 05:05:32;;;;;;;2.93;0.87;;;11.50;99.90;;;;;;4991989;28;20362;-79
2022/11/17 05:07:58;;;;;;;3.28;1.30;;;11.40;99.90;;;;;;5026732;28;20473;-79
2022/11/17 05:13:21;;;;;;;6.95;1.23;;;11.40;99.90;;;;;;5016167;28;20065;-80
2022/11/17 05:18:40;;;;;;;4.30;1.10;;;11.40;99.90;;;;;;5013736;28;20044;-78
2022/11/17 05:21:07;;;;;;;5.43;1.20;;;11.40;99.90;;;;;;4996398;28;20463;-78
2022/11/17 05:26:20;;;;;;;4.40;1.03;;;11.50;99.90;;;;;;4985574;28;20048;-79
2022/11/17 05:28:46;;;;;;;4.30;1.17;;;11.50;99.90;;;;;;4995821;28;20026;-79
2022/11/17 05:31:12;;;;;;;4.20;1.07;;;11.50;99.90;;;;;;4979926;28;20088;-79
2022/11/17 05:33:38;;;;;;;3.05;0.85;;;11.40;99.90;;;;;;4996006;28;20466;-79
2022/11/17 05:36:04;;;;;;;3.70;0.80;;;11.40;99.90;;;;;;4995996;28;20293;-80
2022/11/17 05:38:29;;;;;;;3.28;1.05;;;11.40;99.90;;;;;;4996061;28;20037;-79
2022/11/17 05:40:55;;;;;;;2.67;1.00;;;11.40;99.90;;;;;;4979791;28;20030;-79
2022/11/17 05:43:21;;;;;;;4.67;1.00;;;11.40;99.90;;;;;;4963495;28;20080;-80
2022/11/17 05:45:47;;;;;;;5.65;1.45;;;11.40;99.90;;;;;;4980099;28;20409;-80
2022/11/17 05:48:12;;;;;;;4.17;1.03;;;11.40;99.90;;;;;;4996201;28;20490;-81
2022/11/17 05:50:38;;;;;;;2.85;0.80;;;11.40;99.90;;;;;;4979571;28;20442;-80
2022/11/17 05:53:04;;;;;;;3.80;0.93;;;11.40;99.90;;;;;;4995842;28;20476;-80
2022/11/17 05:55:30;;;;;;;4.45;1.08;;;11.40;99.90;;;;;;5013388;28;20393;-78
2022/11/17 05:57:59;;;;;;;3.20;1.00;;;11.40;99.90;;;;;;4995829;28;20098;-80
2022/11/17 06:00:25;;;;;;;3.53;0.80;;;11.40;99.90;;;;;;5012016;28;20068;-79
2022/11/17 06:02:55;;;;;;;5.65;0.98;;;11.40;99.90;;;;;;4996016;28;20061;-79
2022/11/17 06:05:22;;;;;;;4.18;0.77;;;11.40;99.90;;;;;;4995436;28;20050;-79
2022/11/17 06:07:50;;;;;;;2.67;0.80;;;11.40;99.90;;;;;;5013288;28;20022;-79
2022/11/17 06:10:16;;;;;;;2.58;0.60;;;11.40;99.90;;;;;;4995269;28;20486;-79
2022/11/17 06:12:42;;;;;;;3.03;0.57;;;11.30;99.90;;;;;;4998118;28;20030;-79
2022/11/17 06:15:08;;;;;;;3.70;1.13;;;11.40;99.90;;;;;;4999867;28;20489;-79
2022/11/17 06:17:39;;;;;;;5.40;1.87;;;11.40;99.90;;;;;;5017414;28;20057;-79
2022/11/17 06:20:09;;;;;;;4.63;1.40;;;11.40;99.90;;;;;;4999667;28;20057;-79
2022/11/17 06:22:35;;;;;;;5.85;0.85;;;11.40;99.90;;;;;;5034315;28;20109;-79
2022/11/17 06:25:04;;;;;;;3.17;1.00;;;11.30;99.90;;;;;;5018403;28;20117;-79
2022/11/17 06:27:31;;;;;;;2.90;0.77;;;11.30;99.90;;;;;;5018498;28;20099;-79
2022/11/17 06:30:00;;;;;;;3.07;0.70;;;11.30;99.90;;;;;;5018633;28;20050;-79
2022/11/17 06:32:27;;;;;;;5.28;0.90;;;11.30;99.90;;;;;;5032311;28;20033;-80
2022/11/17 06:34:53;;;;;;;4.53;1.00;;;11.30;99.90;;;;;;5036315;28;20028;-79
2022/11/17 06:37:19;;;;;;;2.63;0.80;;;11.30;99.90;;;;;;5000106;28;20052;-79
2022/11/17 06:39:44;;;;;;;5.03;0.77;;;11.30;99.90;;;;;;5001780;28;20060;-79
2022/11/17 06:42:10;;;;;;;6.07;0.80;;;11.30;99.90;;;;;;5002615;28;20414;-79
2022/11/17 06:44:36;;;;;;;3.70;0.60;;;11.30;99.90;;;;;;5035179;28;20631;-79
2022/11/17 06:47:02;;;;;;;4.27;0.70;;;11.30;99.90;;;;;;4986198;28;20026;-79
2022/11/17 06:49:28;;;;;;;5.83;0.90;;;11.30;99.90;;;;;;5036374;28;20087;-79
2022/11/17 06:51:54;;;;;;;4.97;0.83;;;11.40;99.90;;;;;;5036252;28;20049;-79
2022/11/17 06:54:19;;;;;;;5.82;0.73;;;11.40;99.90;;;;;;5018365;28;20041;-80
2022/11/17 06:56:45;;;;;;;7.73;1.60;;;11.30;99.90;;;;;;5018188;28;20040;-78
2022/11/17 06:59:11;;;;;;;7.13;0.70;;;11.40;99.90;;;;;;5018249;28;20028;-78
2022/11/17 07:01:37;;;;;;;5.37;0.80;;;11.40;99.90;;;;;;5034903;28;20037;-79
2022/11/17 07:04:02;;;;;;;4.70;0.82;;;11.40;99.90;;;;;;5036437;28;20056;-80
2022/11/17 07:06:28;;;;;;;3.88;0.80;;;11.40;99.90;;;;;;5017760;28;20029;-80
2022/11/17 07:08:54;;;;;;;6.37;0.80;;;11.40;99.90;;;;;;5001998;28;20037;-79
2022/11/17 07:11:19;;;;;;;3.67;0.93;;;11.40;99.90;;;;;;5034871;28;20413;-80
2022/11/17 07:13:45;;;;;;;4.95;0.80;;;11.40;99.90;;;;;;5035949;28;20496;-80
2022/11/17 07:16:13;;;;;;;4.80;0.70;;;11.40;99.90;;;;;;5018215;28;20481;-79
2022/11/17 07:18:42;;;;;;;6.07;0.88;;;11.50;99.90;;;;;;5017622;28;20469;-80
2022/11/17 07:21:11;;;;;;;4.67;0.60;;;11.50;99.90;;;;;;5001516;28;20022;-80
2022/11/17 07:23:38;;;;;;;6.97;0.87;;;11.50;99.90;;;;;;5017666;28;20021;-78
2022/11/17 07:26:04;;;;;;;8.47;0.90;;;11.50;99.90;;;;;;5017684;28;20030;-79
2022/11/17 07:28:31;;;;;;;6.40;0.73;;;11.50;99.90;;;;;;5035488;28;20056;-79
2022/11/17 07:31:02;;;;;;;8.32;0.80;;;11.50;99.90;;;;;;5017812;28;20476;-80
2022/11/17 07:33:28;;;;;;;12.90;0.98;;;11.50;99.90;;;;;;5034304;28;20033;-79
2022/11/17 07:35:54;;;;;;;5.82;0.85;;;11.60;99.90;;;;;;5017295;28;20478;-79
2022/11/17 07:38:20;;;;;;;6.53;0.90;;;11.50;99.90;;;;;;5014258;28;20038;-80
2022/11/17 07:40:46;;;;;;;7.65;1.13;;;11.50;99.90;;;;;;5016424;28;20113;-80
2022/11/17 07:43:12;;;;;;;11.88;1.67;;;11.50;99.90;;;;;;5014509;28;20022;-82
2022/11/17 07:45:37;;;;;;;4.68;0.70;;;11.50;99.90;;;;;;5014050;28;20044;-81
2022/11/17 07:48:05;;;;;;;7.53;0.90;;;11.60;99.90;;;;;;5001466;28;20037;-88
2022/11/17 07:50:35;;;;;;;6.03;1.42;;;11.60;99.90;;;;;;5018157;28;20033;-83
2022/11/17 07:53:01;;;;;;;8.45;1.25;;;11.50;99.90;;;;;;5014795;28;20492;-84
2022/11/17 07:55:27;;;;;;;6.22;0.80;;;11.50;99.90;;;;;;5022320;28;20173;-86
2022/11/17 07:57:55;;;;;;;6.28;0.80;;;11.50;99.90;;;;;;5019144;28;20112;-89
2022/11/17 08:00:20;;;;;;;5.30;0.70;;;11.50;99.90;;;;;;5031432;28;20125;-83
2022/11/17 08:02:46;;;;;;;8.27;0.80;;;11.50;99.90;;;;;;5036547;28;20544;-85
2022/11/17 08:05:12;;;;;;;4.93;0.80;;;11.40;99.90;;;;;;5036487;28;20049;-84
2022/11/17 08:07:37;;;;;;;7.07;0.80;;;11.50;99.90;;;;;;5037119;28;20118;-81
2022/11/17 08:10:03;;;;;;;4.32;0.88;;;11.40;99.90;;;;;;5020555;28;20037;-85
2022/11/17 08:12:29;;;;;;;6.67;0.60;;;11.40;99.90;;;;;;5036840;28;20018;-86
2022/11/17 08:14:55;;;;;;;8.00;0.60;;;11.40;99.90;;;;;;5004424;28;20029;-83
2022/11/17 08:17:21;;;;;;;4.38;0.70;;;11.50;99.90;;;;;;5005439;28;20029;-86
2022/11/17 08:19:46;;;;;;;3.10;0.55;;;11.50;99.90;;;;;;5003759;28;20025;-84
2022/11/17 08:22:12;;;;;;;5.07;0.70;;;11.50;99.90;;;;;;5020652;28;20378;-83
2022/11/17 08:24:37;;;;;;;4.10;0.50;;;11.50;99.90;;;;;;5005902;28;20025;-83
2022/11/17 08:27:03;;;;;;;5.43;0.82;;;11.50;99.90;;;;;;5022191;28;20545;-83
2022/11/17 08:29:29;;;;;;;4.88;0.60;;;11.40;99.90;;;;;;5000615;28;20032;-85
2022/11/17 08:31:54;;;;;;;3.63;0.57;;;11.40;99.90;;;;;;5003237;28;20540;-86
2022/11/17 08:34:20;;;;;;;7.83;0.60;;;11.40;99.90;;;;;;5034239;28;20038;-84
2022/11/17 08:36:46;;;;;;;6.63;1.00;;;11.30;99.90;;;;;;4997153;28;20470;-85
2022/11/17 08:39:11;;;;;;;6.27;0.60;;;11.40;99.90;;;;;;5014929;28;20072;-83
2022/11/17 08:41:37;;;;;;;5.33;0.80;;;11.20;99.90;;;;;;4980815;28;20037;-83
2022/11/17 08:44:03;;;;;;;7.17;0.77;;;11.20;99.90;;;;;;4996946;28;20034;-85
2022/11/17 08:46:29;;;;;;;2.38;0.47;;;11.10;99.90;;;;;;4998303;28;20034;-83
2022/11/17 08:48:54;;;;;;;6.17;0.60;;;11.10;99.90;;;;;;5017649;28;20029;-84
2022/11/17 08:51:20;;;;;;;2.87;0.53;;;11.00;99.90;;;;;;5001267;28;20046;-84
2022/11/17 08:53:46;;;;;;;3.65;0.50;;;11.00;99.90;;;;;;4984579;28;20060;-83
2022/11/17 08:56:12;;;;;;;6.63;0.73;;;10.90;99.90;;;;;;5023937;28;20496;-82
2022/11/17 08:58:42;;;;;;;4.70;0.97;;;10.90;99.90;;;;;;5015127;28;20033;-81
2022/11/17 09:01:09;;;;;;;3.70;0.67;;;10.90;99.90;;;;;;5012524;28;20022;-82
2022/11/17 09:03:36;;;;;;;9.40;0.80;;;10.80;99.90;;;;;;4996638;28;20050;-81
2022/11/17 09:06:03;;;;;;;7.40;0.80;;;10.80;99.90;;;;;;5012774;28;20112;-82
2022/11/17 09:08:29;;;;;;;5.97;0.60;;;10.70;99.90;;;;;;5014457;28;20026;-80
2022/11/17 09:10:55;;;;;;;6.47;0.67;;;10.70;99.90;;;;;;5012726;28;20049;-80
2022/11/17 09:13:21;;;;;;;3.33;0.60;;;10.70;99.90;;;;;;4996366;28;20076;-80
2022/11/17 09:15:47;;;;;;;3.97;0.40;;;10.70;99.90;;;;;;5012328;28;20129;-79
2022/11/17 09:18:12;;;;;;;4.20;0.80;;;10.70;99.90;;;;;;5012738;28;20029;-80
2022/11/17 09:20:38;;;;;;;2.87;1.00;;;10.70;99.90;;;;;;4996376;28;20088;-80
2022/11/17 09:23:04;;;;;;;5.80;0.53;;;10.80;99.90;;;;;;4994768;28;20033;-80
2022/11/17 09:25:30;;;;;;;5.90;0.50;;;10.80;99.90;;;;;;4996105;28;20083;-80
2022/11/17 09:28:00;;;;;;;2.30;0.50;;;10.80;99.90;;;;;;5012254;28;20064;-80
2022/11/17 09:30:25;;;;;;;6.43;0.63;;;10.70;99.90;;;;;;5009236;28;20056;-81
2022/11/17 09:32:51;;;;;;;5.13;0.57;;;10.80;99.90;;;;;;5010385;28;20121;-79
2022/11/17 09:35:17;;;;;;;4.13;0.40;;;10.80;99.90;;;;;;4994155;28;20034;-81
2022/11/17 09:37:43;;;;;;;5.23;0.70;;;10.80;99.90;;;;;;4994862;28;20490;-80
2022/11/17 09:40:15;;;;;;;5.00;0.60;;;10.80;99.90;;;;;;5015071;28;20057;-81
2022/11/17 09:42:41;;;;;;;5.73;0.60;;;10.80;99.90;;;;;;5032986;28;20529;-79
2022/11/17 09:45:21;;;;;;;3.20;0.60;;;10.90;99.90;;;;;;4998091;28;20115;-82
2022/11/17 09:47:50;;;;;;;2.07;0.40;;;10.80;99.90;;;;;;5015516;28;20033;-83
2022/11/17 09:50:27;;;;;;;3.33;0.50;;;10.90;99.90;;;;;;5015467;28;20514;-79
2022/11/17 09:52:58;;;;;;;1.33;0.50;;;10.80;99.90;;;;;;5015111;28;20108;-78
2022/11/17 09:55:38;;;;;;;8.23;0.93;;;10.80;99.90;;;;;;5015177;28;20029;-82
2022/11/17 09:58:14;;;;;;;4.93;0.90;;;10.80;99.90;;;;;;5015326;28;20059;-78
2022/11/17 10:00:46;;;;;;;2.37;0.50;;;10.80;99.90;;;;;;5015284;28;20607;-77
2022/11/17 10:03:21;;;;;;;2.20;0.40;;;10.80;99.90;;;;;;5014942;28;20466;-81
2022/11/17 10:05:48;;;;;;;3.87;0.60;;;10.80;99.90;;;;;;5014852;28;20041;-79
2022/11/17 10:08:47;;;;;;;6.50;0.60;;;10.70;99.90;;;;;;5033233;28;20033;-80
2022/11/17 10:11:31;;;;;;;4.77;0.40;;;10.70;99.90;;;;;;5014320;28;20057;-81
2022/11/17 10:14:13;;;;;;;1.50;0.50;;;10.70;99.90;;;;;;5014995;28;20088;-82
2022/11/17 10:16:59;;;;;;;3.53;0.43;;;10.60;99.90;;;;;;5015182;28;20473;-83
2022/11/17 10:19:31;;;;;;;2.47;0.60;;;10.70;99.90;;;;;;5014645;28;20041;-80
2022/11/17 10:22:02;;;;;;;2.43;0.50;;;10.60;99.90;;;;;;5015613;28;20112;-82
2022/11/17 10:24:35;;;;;;;3.50;0.57;;;10.70;99.90;;;;;;5015082;28;20073;-82
2022/11/17 10:27:25;;;;;;;4.30;0.60;;;10.70;99.90;;;;;;5014992;28;20094;-81
2022/11/17 10:30:10;;;;;;;3.00;0.50;;;10.70;99.90;;;;;;5031425;28;20477;-83
2022/11/17 10:32:45;;;;;;;4.23;0.60;;;10.70;99.90;;;;;;5014393;28;20025;-82
2022/11/17 10:35:17;;;;;;;8.10;0.90;;;10.80;99.90;;;;;;5014452;28;20064;-79
2022/11/17 10:38:07;;;;;;;3.27;0.53;;;10.80;99.90;;;;;;5011394;28;20022;-78
2022/11/17 10:40:48;;;;;;;4.27;0.70;;;10.80;99.90;;;;;;5012726;28;20475;-78
2022/11/17 10:43:15;;;;;;;4.43;0.57;;;10.80;99.90;;;;;;5012692;28;20045;-78
2022/11/17 10:45:46;;;;;;;5.50;0.50;;;10.90;99.90;;;;;;5011399;28;20030;-78
2022/11/17 10:48:30;;;;;;;7.23;0.67;;;10.90;99.90;;;;;;5013334;28;20471;-78
2022/11/17 10:51:00;;;;;;;;;;;11.00;99.90;;;;;;5011704;28;20481;-77
2022/11/17 10:53:30;;;;;;;5.20;0.60;;;11.00;99.90;;;;;;5011447;28;19932;-77
2022/11/17 10:56:12;;;;;;;3.00;0.50;;;11.10;99.90;;;;;;5017050;28;20029;-81
2022/11/17 10:59:12;;;;;;;5.93;0.87;;;11.10;99.90;;;;;;5036275;28;20021;-78
2022/11/17 11:01:40;;;;;;;5.20;0.60;;;11.20;99.90;;;;;;4992668;28;20069;-77
2022/11/17 11:04:31;;;;;;;4.68;0.43;;;11.20;99.90;;;;;;5022586;28;20041;-80
2022/11/17 11:07:18;;;;;;;5.97;0.40;;;11.30;99.90;;;;;;5016726;28;20047;-81
2022/11/17 11:10:05;;;;;;;2.00;0.40;;;11.30;99.90;;;;;;5027557;28;20672;-78
2022/11/17 11:12:44;;;;;;;2.07;0.40;;;11.40;99.90;;;;;;5034752;28;20100;-78
2022/11/17 11:15:18;;;;;;;4.20;0.47;;;11.50;99.90;;;;;;5017951;28;20017;-79
2022/11/17 11:17:44;;;;;;;4.32;0.40;;;11.60;99.90;;;;;;5017822;28;20104;-78
2022/11/17 11:20:15;;;;;;;1.98;0.55;;;11.60;99.90;;;;;;5017295;28;20124;-78
2022/11/17 11:23:01;;;;;;;4.05;0.45;;;11.60;99.90;;;;;;5001220;28;20029;-78
2022/11/17 11:25:50;;;;;;;3.55;0.55;;;11.70;99.90;;;;;;5035554;28;20207;-78
2022/11/17 11:28:59;;;;;;;5.75;0.47;;;11.70;99.90;;;;;;5033836;28;20035;-78
2022/11/17 11:31:46;;;;;;;4.07;0.50;;;11.70;99.90;;;;;;5037539;28;20194;-78
2022/11/17 11:34:30;;;;;;;1.92;0.30;;;11.70;99.90;;;;;;5037157;28;20043;-78
2022/11/17 11:37:03;;;;;;;0.95;0.28;;;11.70;99.90;;;;;;5037337;28;20397;-78
2022/11/17 11:39:58;;;;;;;1.58;0.30;;;11.70;99.80;;;;;;5036533;28;20021;-78
2022/11/17 11:42:34;;;;;;;5.45;0.40;;;11.80;99.80;;;;;;5054348;28;20021;-78
2022/11/17 11:45:26;;;;;;;5.72;0.60;;;11.80;99.70;;;;;;5054638;28;20465;-78
2022/11/17 11:47:57;;;;;;;3.20;0.47;;;11.90;99.60;;;;;;5036674;28;20071;-78
2022/11/17 11:50:26;;;;;;;4.38;0.75;;;11.90;99.40;;;;;;5036827;28;20472;-78
2022/11/17 11:53:03;;;;;;;4.80;0.40;;;11.90;98.80;;;;;;5036779;28;20032;-78
2022/11/17 11:55:33;;;;;;;4.18;0.50;;;11.80;99.00;;;;;;5016629;28;20025;-78
2022/11/17 11:58:05;;;;;;;4.95;0.70;;;11.80;99.00;;;;;;5041378;28;20052;-78
2022/11/17 12:00:32;;;;;;;4.47;0.43;;;11.80;98.90;;;;;;5025212;28;20033;-78
2022/11/17 12:03:22;;;;;;;3.90;0.55;;;11.80;98.80;;;;;;5005801;28;20021;-78
2022/11/17 12:06:38;;;;;;;3.45;0.40;;;11.80;98.60;;;;;;5025164;28;20401;-78
2022/11/17 12:09:15;;;;;;;6.15;0.60;;;11.80;98.70;;;;;;5043094;28;20028;-79
2022/11/17 12:12:00;;;;;;;3.13;0.40;;;11.80;98.90;;;;;;5041297;28;20033;-78
2022/11/17 12:14:31;;;;;;;3.38;0.65;;;11.70;99.00;;;;;;5006206;28;20483;-77
2022/11/17 12:17:05;;;;;;;4.78;0.50;;;11.80;99.00;;;;;;5032779;28;20096;-79
2022/11/17 12:19:56;;;;;;;3.47;0.70;;;11.70;99.20;;;;;;5033525;28;20056;-78
2022/11/17 12:22:33;;;;;;;6.47;0.57;;;11.70;99.40;;;;;;5042032;28;20033;-78
2022/11/17 12:25:13;;;;;;;1.05;0.35;;;11.70;99.50;;;;;;5016698;28;20398;-79
2022/11/17 12:27:40;;;;;;;5.32;0.60;;;11.70;99.60;;;;;;5032315;28;20120;-78
2022/11/17 12:30:29;;;;;;;2.33;0.77;;;11.70;99.70;;;;;;5015764;28;20041;-78
2022/11/17 12:32:55;;;;;;;0.75;0.30;;;11.70;99.40;;;;;;5016188;28;20032;-78
2022/11/17 12:35:28;;;;;;;4.40;0.50;;;11.70;99.40;;;;;;5004815;28;20049;-78
2022/11/17 12:38:15;;;;;;;5.20;0.73;;;11.70;99.40;;;;;;5019056;28;20037;-77
2022/11/17 12:40:49;;;;;;;4.20;0.77;;;11.70;99.40;;;;;;5033183;28;20036;-78
2022/11/17 12:43:15;;;;;;;5.55;0.45;;;11.70;99.60;;;;;;5021877;28;20032;-76
2022/11/17 12:45:59;;;;;;;5.38;0.60;;;11.70;99.80;;;;;;5044450;28;20377;-77
2022/11/17 12:48:34;;;;;;;4.68;0.30;;;11.70;99.60;;;;;;5035283;28;20025;-77
2022/11/17 12:51:09;;;;;;;1.35;0.55;;;11.70;99.60;;;;;;5035583;28;20036;-78
2022/11/17 12:53:48;;;;;;;3.60;0.50;;;11.70;99.60;;;;;;5052901;28;20396;-78
2022/11/17 12:56:38;;;;;;;6.28;0.95;;;11.60;99.50;;;;;;5019912;28;20474;-78
2022/11/17 12:59:14;;;;;;;2.25;0.65;;;11.70;99.30;;;;;;5018107;28;20034;-78
2022/11/17 13:02:14;;;;;;;2.78;0.50;;;11.70;99.10;;;;;;5016082;28;20038;-78
2022/11/17 13:05:02;;;;;;;4.10;0.40;;;11.70;99.10;;;;;;5018171;28;20053;-78
2022/11/17 13:07:28;;;;;;;1.27;0.30;;;11.60;99.10;;;;;;5020948;28;20025;-78
2022/11/17 13:09:56;;;;;;;6.63;0.50;;;11.70;99.20;;;;;;5021100;28;20038;-78
2022/11/17 13:12:30;;;;;;;4.63;0.57;;;11.60;99.30;;;;;;5019570;28;20475;-78
2022/11/17 13:14:57;;;;;;;2.58;0.47;;;11.60;99.30;;;;;;5020750;28;20067;-78
2022/11/17 13:17:42;;;;;;;3.22;0.60;;;11.60;99.20;;;;;;5025280;28;20049;-78
2022/11/17 13:20:28;;;;;;;2.10;0.45;;;11.60;99.30;;;;;;5008098;28;20505;-78
2022/11/17 13:23:05;;;;;;;3.28;0.50;;;11.60;99.40;;;;;;4995974;28;20025;-78
2022/11/17 13:25:32;;;;;;;3.22;0.68;;;11.60;99.50;;;;;;5021178;28;20035;-78
2022/11/17 13:27:58;;;;;;;2.05;0.50;;;11.50;99.30;;;;;;4999000;28;20535;-78
2022/11/17 13:30:26;;;;;;;4.53;0.50;;;11.50;99.30;;;;;;5011496;28;20041;-79
2022/11/17 13:32:54;;;;;;;5.20;0.60;;;11.50;99.30;;;;;;5011942;28;20022;-78
2022/11/17 13:35:28;;;;;;;2.53;0.43;;;11.50;99.50;;;;;;4996149;28;20149;-78
2022/11/17 13:38:19;;;;;;;3.25;0.60;;;11.50;99.60;;;;;;5011710;28;20037;-78